createdAt,value
2022-12-08T00:01:20.739Z,101544.44
2022-12-08T00:03:48.279Z,101537.53
2022-12-08T00:06:43.780Z,101522.72
2022-12-08T00:09:38.169Z,101532.22
2022-12-08T00:12:11.605Z,101527.06
2022-12-08T00:14:43.474Z,101517.66
2022-12-08T00:17:12.067Z,101515.97
2022-12-08T00:19:39.948Z,101504.75
2022-12-08T00:22:08.420Z,101506.50
2022-12-08T00:24:40.534Z,101498.66
2022-12-08T00:27:08.636Z,101499.53
2022-12-08T00:29:35.146Z,101514.81
2022-12-08T00:32:01.837Z,101502.78
2022-12-08T00:34:28.474Z,101493.31
2022-12-08T00:36:55.072Z,101497.56
2022-12-08T00:39:21.770Z,101487.34
2022-12-08T00:42:06.714Z,101489.03
2022-12-08T00:44:33.265Z,101489.88
2022-12-08T00:46:59.785Z,101450.63
2022-12-08T00:49:26.526Z,101430.81
2022-12-08T00:51:53.212Z,101476.88
2022-12-08T00:54:20.274Z,101477.94
2022-12-08T00:56:46.858Z,101466.66
2022-12-08T00:59:13.378Z,101475.38
2022-12-08T01:01:40.042Z,101421.59
2022-12-08T01:04:08.623Z,101466.75
2022-12-08T01:06:36.202Z,101464.19
2022-12-08T01:09:04.633Z,101449.59
2022-12-08T01:11:31.629Z,101439.13
2022-12-08T01:13:58.306Z,101442.56
2022-12-08T01:16:27.818Z,101440.91
2022-12-08T01:18:55.016Z,101432.50
2022-12-08T01:21:22.007Z,101439.22
2022-12-08T01:23:48.582Z,101430.66
2022-12-08T01:26:16.921Z,101434.34
2022-12-08T01:28:44.446Z,101449.81
2022-12-08T01:31:16.696Z,101447.25
2022-12-08T01:33:43.913Z,101446.31
2022-12-08T01:36:20.679Z,101436.84
2022-12-08T01:38:47.509Z,101424.72
2022-12-08T01:41:19.420Z,101432.50
2022-12-08T01:44:00.985Z,101425.53
2022-12-08T01:46:30.715Z,101426.41
2022-12-08T01:49:05.266Z,101390.03
2022-12-08T01:51:38.395Z,101389.91
2022-12-08T01:54:06.926Z,101418.56
2022-12-08T01:56:58.876Z,101388.88
2022-12-08T01:59:26.915Z,101415.63
2022-12-08T02:01:53.613Z,101410.50
2022-12-08T02:04:20.334Z,101388.47
2022-12-08T02:06:49.579Z,101413.66
2022-12-08T02:09:16.781Z,101412.66
2022-12-08T02:11:43.287Z,101394.25
2022-12-08T02:14:13.516Z,101422.88
2022-12-08T02:16:57.926Z,101405.25
2022-12-08T02:20:02.567Z,101429.44
2022-12-08T02:22:52.198Z,101413.81
2022-12-08T02:25:49.723Z,101415.56
2022-12-08T02:28:38.094Z,101408.72
2022-12-08T02:31:34.643Z,101400.13
2022-12-08T02:34:30.473Z,101378.50
2022-12-08T02:37:06.032Z,101384.72
2022-12-08T02:39:35.465Z,101391.56
2022-12-08T02:42:08.498Z,101382.06
2022-12-08T02:45:00.244Z,101389.69
2022-12-08T02:47:28.144Z,101381.09
2022-12-08T02:49:59.046Z,101373.19
2022-12-08T02:52:25.522Z,101379.38
2022-12-08T02:54:59.528Z,101375.84
2022-12-08T02:57:56.137Z,101373.25
2022-12-08T03:00:25.251Z,101367.22
2022-12-08T03:03:09.972Z,101373.25
2022-12-08T03:06:09.330Z,101368.03
2022-12-08T03:08:41.818Z,101356.84
2022-12-08T03:11:15.077Z,101361.84
2022-12-08T03:13:46.350Z,101348.88
2022-12-08T03:16:17.478Z,101344.66
2022-12-08T03:18:49.535Z,101335.19
2022-12-08T03:21:19.438Z,101312.69
2022-12-08T03:23:49.633Z,101329.34
2022-12-08T03:26:31.809Z,101325.09
2022-12-08T03:28:58.716Z,101302.47
2022-12-08T03:31:29.033Z,101313.72
2022-12-08T03:33:58.497Z,101298.22
2022-12-08T03:36:26.091Z,101294.66
2022-12-08T03:38:54.238Z,101305.09
2022-12-08T03:41:22.661Z,101302.41
2022-12-08T03:43:54.290Z,101311.06
2022-12-08T03:48:48.533Z,101299.53
2022-12-08T03:51:15.749Z,101311.72
2022-12-08T03:53:42.609Z,101305.66
2022-12-08T03:56:26.289Z,101305.66
2022-12-08T03:58:53.950Z,101303.03
2022-12-08T04:01:21.433Z,101307.22
2022-12-08T04:03:48.620Z,101306.38
2022-12-08T04:06:15.970Z,101298.66
2022-12-08T04:08:42.904Z,101296.78
2022-12-08T04:11:09.840Z,101295.91
2022-12-08T04:13:38.340Z,101288.03
2022-12-08T04:16:05.994Z,101301.13
2022-12-08T04:18:33.503Z,101303.63
2022-12-08T04:21:00.142Z,101266.31
2022-12-08T04:23:26.807Z,101298.41
2022-12-08T04:25:53.823Z,101288.84
2022-12-08T04:28:20.519Z,101284.41
2022-12-08T04:30:48.327Z,101279.25
2022-12-08T04:33:15.014Z,101261.00
2022-12-08T04:35:41.634Z,101255.78
2022-12-08T04:38:08.286Z,101280.94
2022-12-08T04:40:34.942Z,101250.66
2022-12-08T04:43:01.467Z,101231.41
2022-12-08T04:45:27.981Z,101243.50
2022-12-08T04:47:54.555Z,101242.72
2022-12-08T04:50:21.299Z,101276.53
2022-12-08T04:52:48.094Z,101267.94
2022-12-08T04:55:14.753Z,101239.25
2022-12-08T04:57:41.286Z,101265.97
2022-12-08T05:00:08.786Z,101259.13
2022-12-08T05:02:35.910Z,101260.63
2022-12-08T05:05:02.496Z,101258.03
2022-12-08T05:07:29.049Z,101267.59
2022-12-08T05:09:55.716Z,101243.25
2022-12-08T05:12:22.237Z,101264.03
2022-12-08T05:14:48.819Z,101264.81
2022-12-08T05:17:17.168Z,101260.63
2022-12-08T05:19:44.137Z,101264.00
2022-12-08T05:22:11.164Z,101258.03
2022-12-08T05:24:42.501Z,101260.38
2022-12-08T05:27:12.462Z,101257.91
2022-12-08T05:29:39.000Z,101258.66
2022-12-08T05:32:05.832Z,101262.00
2022-12-08T05:34:32.482Z,101255.94
2022-12-08T05:36:59.037Z,101249.94
2022-12-08T05:39:25.674Z,101249.16
2022-12-08T05:41:52.187Z,101258.53
2022-12-08T05:44:18.751Z,101261.09
2022-12-08T05:46:45.400Z,101219.56
2022-12-08T05:49:11.963Z,101238.63
2022-12-08T05:51:38.518Z,101242.94
2022-12-08T05:54:05.197Z,101249.03
2022-12-08T05:56:31.714Z,101239.38
2022-12-08T05:58:58.392Z,101209.94
2022-12-08T06:01:30.719Z,101235.91
2022-12-08T06:03:59.891Z,101236.72
2022-12-08T06:06:27.038Z,101201.22
2022-12-08T06:08:53.905Z,101194.28
2022-12-08T06:11:26.223Z,101229.09
2022-12-08T06:13:53.886Z,101236.03
2022-12-08T06:16:20.550Z,101218.88
2022-12-08T06:18:47.507Z,101230.13
2022-12-08T06:21:15.477Z,101224.09
2022-12-08T06:23:42.802Z,101227.56
2022-12-08T06:26:12.370Z,101224.97
2022-12-08T06:28:39.773Z,101229.34
2022-12-08T06:31:11.084Z,101239.53
2022-12-08T06:33:38.449Z,101189.31
2022-12-08T06:36:06.266Z,101190.94
2022-12-08T06:38:33.409Z,101183.16
2022-12-08T06:41:00.660Z,101201.44
2022-12-08T06:43:27.720Z,101200.00
2022-12-08T06:45:54.355Z,101217.16
2022-12-08T06:48:21.111Z,101190.22
2022-12-08T06:50:47.609Z,101220.47
2022-12-08T06:53:15.220Z,101202.19
2022-12-08T06:56:01.812Z,101222.31
2022-12-08T06:58:28.587Z,101211.66
2022-12-08T07:00:55.324Z,101211.72
2022-12-08T07:03:22.150Z,101221.88
2022-12-08T07:05:49.221Z,101195.88
2022-12-08T07:08:15.890Z,101198.44
2022-12-08T07:10:42.781Z,101207.97
2022-12-08T07:13:09.409Z,101200.25
2022-12-08T07:15:35.926Z,101199.38
2022-12-08T07:18:02.506Z,101207.34
2022-12-08T07:20:29.259Z,101211.66
2022-12-08T07:22:56.142Z,101225.28
2022-12-08T07:25:23.212Z,101208.81
2022-12-08T07:27:51.622Z,101220.03
2022-12-08T07:30:18.502Z,101199.00
2022-12-08T07:32:45.467Z,101194.72
2022-12-08T07:35:12.056Z,101201.69
2022-12-08T07:37:38.897Z,101215.72
2022-12-08T07:40:07.666Z,101215.72
2022-12-08T07:42:34.684Z,101197.25
2022-12-08T07:45:01.302Z,101215.53
2022-12-08T07:47:27.875Z,101214.78
2022-12-08T07:49:54.380Z,101218.16
2022-12-08T07:52:20.986Z,101212.19
2022-12-08T07:54:47.533Z,101180.00
2022-12-08T07:57:14.159Z,101171.19
2022-12-08T07:59:40.677Z,101205.84
2022-12-08T08:02:24.017Z,101212.81
2022-12-08T08:04:51.852Z,101175.34
2022-12-08T08:07:18.414Z,101198.88
2022-12-08T08:09:45.752Z,101202.50
2022-12-08T08:15:04.096Z,101215.41
2022-12-08T08:17:30.848Z,101207.72
2022-12-08T08:19:57.949Z,101196.44
2022-12-08T08:22:25.426Z,101183.59
2022-12-08T08:24:52.278Z,101181.97
2022-12-08T08:27:19.556Z,101199.94
2022-12-08T08:29:46.146Z,101205.47
2022-12-08T08:32:12.731Z,101190.78
2022-12-08T08:34:39.464Z,101184.78
2022-12-08T08:37:06.131Z,101170.06
2022-12-08T08:39:32.866Z,101170.41
2022-12-08T08:41:59.413Z,101149.81
2022-12-08T08:44:25.947Z,101160.34
2022-12-08T08:46:52.637Z,101156.31
2022-12-08T08:49:20.155Z,101140.63
2022-12-08T08:51:46.877Z,101166.72
2022-12-08T08:54:13.760Z,101174.16
2022-12-08T08:56:40.286Z,101194.22
2022-12-08T08:59:06.823Z,101173.69
2022-12-08T09:01:33.954Z,101151.47
2022-12-08T09:04:01.448Z,101168.09
2022-12-08T09:06:28.559Z,101165.81
2022-12-08T09:08:55.404Z,101153.91
2022-12-08T09:11:23.619Z,101163.50
2022-12-08T09:13:51.737Z,101171.59
2022-12-08T09:16:22.322Z,101171.81
2022-12-08T09:18:51.792Z,101164.97
2022-12-08T09:21:23.078Z,101147.88
2022-12-08T09:23:51.413Z,101136.91
2022-12-08T09:26:18.660Z,101162.28
2022-12-08T09:28:46.842Z,101165.97
2022-12-08T09:31:14.700Z,101153.38
2022-12-08T09:33:41.839Z,101136.09
2022-12-08T09:36:09.074Z,101168.56
2022-12-08T09:38:36.001Z,101132.31
2022-12-08T09:41:07.774Z,101122.13
2022-12-08T09:43:55.802Z,101168.47
2022-12-08T09:46:22.595Z,101153.97
2022-12-08T09:48:57.005Z,101129.19
2022-12-08T09:51:31.650Z,101133.81
2022-12-08T09:54:11.984Z,101144.56
2022-12-08T09:56:39.528Z,101130.84
2022-12-08T09:59:09.218Z,101166.50
2022-12-08T10:01:41.669Z,101149.38
2022-12-08T10:04:28.936Z,101134.91
2022-12-08T10:06:58.434Z,101155.19
2022-12-08T10:09:41.558Z,101125.06
2022-12-08T10:12:20.145Z,101156.56
2022-12-08T10:15:16.769Z,101152.53
2022-12-08T10:17:51.125Z,101159.69
2022-12-08T10:20:26.490Z,101125.28
2022-12-08T10:23:07.521Z,101136.84
2022-12-08T10:25:39.315Z,101150.06
2022-12-08T10:28:05.826Z,101146.91
2022-12-08T10:30:32.486Z,101121.16
2022-12-08T10:32:59.814Z,101116.25
2022-12-08T10:35:43.315Z,101142.69
2022-12-08T10:38:17.903Z,101137.03
2022-12-08T10:40:46.661Z,101131.28
2022-12-08T10:43:18.713Z,101121.25
2022-12-08T10:45:45.384Z,101094.75
2022-12-08T10:48:19.323Z,101103.81
2022-12-08T10:50:57.080Z,101093.88
2022-12-08T10:53:29.469Z,101097.75
2022-12-08T10:56:02.070Z,101112.84
2022-12-08T10:58:43.019Z,101088.97
2022-12-08T11:01:20.114Z,101110.19
2022-12-08T11:03:58.338Z,101070.75
2022-12-08T11:06:39.165Z,101089.28
2022-12-08T11:09:18.052Z,101106.84
2022-12-08T11:11:46.144Z,101107.16
2022-12-08T11:14:19.566Z,101098.88
2022-12-08T11:16:46.252Z,101057.78
2022-12-08T11:19:18.326Z,101086.56
2022-12-08T11:21:46.112Z,101071.25
2022-12-08T11:24:15.986Z,101085.28
2022-12-08T11:27:04.525Z,101090.56
2022-12-08T11:29:35.336Z,101088.09
2022-12-08T11:32:04.605Z,101081.31
2022-12-08T11:34:41.916Z,101071.97
2022-12-08T11:37:34.644Z,101075.53
2022-12-08T11:40:07.514Z,101042.00
2022-12-08T11:42:41.671Z,101062.84
2022-12-08T11:45:15.963Z,101031.84
2022-12-08T11:48:05.936Z,101052.69
2022-12-08T11:50:43.042Z,101052.72
2022-12-08T11:53:25.004Z,101054.56
2022-12-08T11:55:57.715Z,101052.94
2022-12-08T11:58:41.432Z,101044.34
2022-12-08T12:01:19.194Z,101028.03
2022-12-08T12:03:54.469Z,101041.13
2022-12-08T12:06:55.178Z,101038.59
2022-12-08T12:09:48.626Z,101023.19
2022-12-08T12:12:39.632Z,100992.16
2022-12-08T12:15:40.284Z,101030.16
2022-12-08T12:18:14.848Z,101031.06
2022-12-08T12:20:53.239Z,101020.78
2022-12-08T12:23:38.842Z,101015.59
2022-12-08T12:26:16.699Z,101027.72
2022-12-08T12:28:49.817Z,101034.59
2022-12-08T12:31:21.803Z,101032.91
2022-12-08T12:33:50.059Z,101009.59
2022-12-08T12:36:17.276Z,101036.34
2022-12-08T12:39:01.364Z,101018.22
2022-12-08T12:41:34.353Z,101021.72
2022-12-08T12:44:24.305Z,101022.63
2022-12-08T12:46:50.892Z,101018.31
2022-12-08T12:49:49.768Z,101011.44
2022-12-08T12:52:16.209Z,101019.22
2022-12-08T12:55:03.810Z,101010.53
2022-12-08T12:57:37.364Z,101007.09
2022-12-08T13:00:03.881Z,101005.34
2022-12-08T13:02:39.985Z,100991.53
2022-12-08T13:05:30.848Z,100979.47
2022-12-08T13:08:02.067Z,100982.09
2022-12-08T13:10:33.248Z,100967.41
2022-12-08T13:13:21.016Z,100996.75
2022-12-08T13:15:56.615Z,100974.34
2022-12-08T13:18:32.256Z,100982.97
2022-12-08T13:21:15.009Z,100992.47
2022-12-08T13:23:45.938Z,100986.44
2022-12-08T13:26:18.408Z,100995.06
2022-12-08T13:29:01.337Z,100991.59
2022-12-08T13:31:49.831Z,100992.47
2022-12-08T13:34:51.781Z,100992.53
2022-12-08T13:37:54.428Z,100983.06
2022-12-08T13:40:25.419Z,100987.31
2022-12-08T13:43:10.591Z,100988.19
2022-12-08T13:46:41.987Z,100973.53
2022-12-08T13:57:32.761Z,100967.47
2022-12-08T14:00:02.323Z,100964.00
2022-12-08T14:02:47.774Z,100957.06
2022-12-08T14:05:40.676Z,100963.09
2022-12-08T14:08:07.088Z,100956.16
2022-12-08T14:10:33.642Z,100951.00
2022-12-08T14:13:05.538Z,100965.63
2022-12-08T14:15:37.756Z,100963.91
2022-12-08T14:18:04.682Z,100957.03
2022-12-08T14:20:46.526Z,100962.19
2022-12-08T14:23:18.763Z,100943.22
2022-12-08T14:25:47.979Z,100949.28
2022-12-08T14:28:14.591Z,100938.97
2022-12-08T14:30:41.248Z,100946.72
2022-12-08T14:33:14.687Z,100948.44
2022-12-08T14:35:41.498Z,100939.84
2022-12-08T14:38:16.858Z,100945.00
2022-12-08T14:41:06.780Z,100952.72
2022-12-08T14:43:33.619Z,100930.34
2022-12-08T14:46:02.890Z,100949.28
2022-12-08T14:48:36.342Z,100948.44
2022-12-08T14:51:33.252Z,100953.53
2022-12-08T14:54:09.916Z,100927.66
2022-12-08T14:56:40.427Z,100925.03
2022-12-08T14:59:17.523Z,100938.00
2022-12-08T15:01:44.974Z,100930.19
2022-12-08T15:04:14.773Z,100931.06
2022-12-08T15:06:52.966Z,100927.56
2022-12-08T15:09:32.443Z,100925.81
2022-12-08T15:12:24.724Z,100912.81
2022-12-08T15:14:57.680Z,100928.28
2022-12-08T15:17:30.229Z,100920.47
2022-12-08T15:19:58.239Z,100929.03
2022-12-08T15:22:26.638Z,100930.69
2022-12-08T15:24:53.925Z,100942.69
2022-12-08T15:27:23.103Z,100935.72
2022-12-08T15:29:50.529Z,100904.63
2022-12-08T15:32:22.290Z,100904.56
2022-12-08T15:34:49.061Z,100932.13
2022-12-08T15:37:24.061Z,100920.78
2022-12-08T15:39:51.274Z,100942.28
2022-12-08T15:42:17.874Z,100939.66
2022-12-08T15:44:44.567Z,100933.50
2022-12-08T15:47:16.765Z,100935.19
2022-12-08T15:49:43.891Z,100927.31
2022-12-08T15:52:16.207Z,100944.41
2022-12-08T15:54:42.832Z,100937.50
2022-12-08T16:00:52.820Z,100931.28
2022-12-08T16:09:39.055Z,100917.16
2022-12-08T16:13:47.982Z,100921.34
2022-12-08T16:18:23.191Z,100910.69
2022-12-08T16:23:44.968Z,100889.66
2022-12-08T16:26:28.646Z,100906.84
2022-12-08T16:29:02.980Z,100914.34
2022-12-08T16:31:29.648Z,100896.88
2022-12-08T16:33:56.270Z,100920.09
2022-12-08T16:36:22.807Z,100917.31
2022-12-08T16:38:49.323Z,100928.41
2022-12-08T16:41:36.072Z,100927.41
2022-12-08T16:44:04.154Z,100920.44
2022-12-08T16:46:31.048Z,100913.34
2022-12-08T16:48:59.066Z,100896.78
2022-12-08T16:51:27.363Z,100881.16
2022-12-08T16:53:55.332Z,100930.31
2022-12-08T16:56:26.184Z,100922.50
2022-12-08T16:58:57.136Z,100909.50
2022-12-08T17:01:23.968Z,100928.34
2022-12-08T17:04:14.246Z,100934.28
2022-12-08T17:06:37.194Z,100920.41
2022-12-08T17:09:03.962Z,100921.34
2022-12-08T17:11:36.275Z,100909.16
2022-12-08T17:14:09.207Z,100923.06
2022-12-08T17:16:35.913Z,100916.13
2022-12-08T17:19:02.554Z,100912.63
2022-12-08T17:21:29.123Z,100917.75
2022-12-08T17:23:55.757Z,100907.31
2022-12-08T17:26:22.364Z,100927.06
2022-12-08T17:29:04.256Z,100947.63
2022-12-08T17:31:32.572Z,100900.00
2022-12-08T17:34:04.325Z,100943.19
2022-12-08T17:36:31.361Z,100924.22
2022-12-08T17:38:59.460Z,100924.09
2022-12-08T17:41:26.112Z,100879.19
2022-12-08T17:43:52.710Z,100925.75
2022-12-08T17:46:20.607Z,100943.78
2022-12-08T17:48:50.181Z,100937.75
2022-12-08T17:51:16.732Z,100920.44
2022-12-08T17:53:43.391Z,100922.09
2022-12-08T17:56:19.793Z,100934.09
2022-12-08T17:58:52.630Z,100919.34
2022-12-08T18:01:21.399Z,100918.31
2022-12-08T18:03:49.235Z,100924.34
2022-12-08T18:06:17.567Z,100926.81
2022-12-08T18:08:44.439Z,100890.34
2022-12-08T18:11:17.906Z,100933.38
2022-12-08T18:13:45.852Z,100932.38
2022-12-08T18:16:12.531Z,100896.69
2022-12-08T18:18:39.560Z,100938.97
2022-12-08T18:21:06.965Z,100932.88
2022-12-08T18:23:34.806Z,100906.81
2022-12-08T18:26:03.175Z,100919.88
2022-12-08T18:28:29.713Z,100909.28
2022-12-08T18:30:56.356Z,100906.66
2022-12-08T18:33:22.949Z,100924.75
2022-12-08T18:35:49.493Z,100914.25
2022-12-08T18:38:16.081Z,100917.75
2022-12-08T18:40:42.753Z,100940.94
2022-12-08T18:43:09.297Z,100887.28
2022-12-08T18:45:37.018Z,100927.00
2022-12-08T18:48:03.822Z,100928.66
2022-12-08T18:50:30.367Z,100925.03
2022-12-08T18:52:56.998Z,100913.72
2022-12-08T18:55:23.699Z,100917.97
2022-12-08T18:57:50.296Z,100909.16
2022-12-08T19:00:18.668Z,100927.34
2022-12-08T19:02:46.806Z,100928.94
2022-12-08T19:05:14.171Z,100926.31
2022-12-08T19:07:42.547Z,100908.91
2022-12-08T19:10:10.328Z,100907.00
2022-12-08T19:12:37.033Z,100884.50
2022-12-08T19:15:04.264Z,100897.44
2022-12-08T19:17:31.049Z,100929.25
2022-12-08T19:19:57.567Z,100915.38
2022-12-08T19:22:24.158Z,100915.16
2022-12-08T19:24:50.705Z,100926.28
2022-12-08T19:27:17.299Z,100919.34
2022-12-08T19:29:43.800Z,100908.03
2022-12-08T19:32:10.402Z,100900.09
2022-12-08T19:34:37.032Z,100926.84
2022-12-08T19:37:03.874Z,100921.69
2022-12-08T19:39:49.252Z,100911.34
2022-12-08T19:42:37.325Z,100907.75
2022-12-08T19:45:13.235Z,100918.03
2022-12-08T19:47:41.163Z,100911.13
2022-12-08T19:50:29.324Z,100907.63
2022-12-08T19:52:56.383Z,100901.63
2022-12-08T19:55:26.249Z,100879.91
2022-12-08T19:57:53.440Z,100908.53
2022-12-08T20:00:21.287Z,100908.53
2022-12-08T20:02:48.522Z,100879.91
2022-12-08T20:05:15.626Z,100910.06
2022-12-08T20:07:42.910Z,100862.41
2022-12-08T20:10:16.497Z,100909.28
2022-12-08T20:12:43.179Z,100917.66
2022-12-08T20:15:10.328Z,100912.56
2022-12-08T20:17:38.450Z,100902.09
2022-12-08T20:20:07.578Z,100917.59
2022-12-08T20:22:34.674Z,100914.03
2022-12-08T20:25:02.292Z,100927.63
2022-12-08T20:27:29.278Z,100912.84
2022-12-08T20:29:55.946Z,100927.44
2022-12-08T20:32:22.494Z,100924.72
2022-12-08T20:34:49.217Z,100900.28
2022-12-08T20:37:15.793Z,100926.28
2022-12-08T20:39:42.424Z,100932.25
2022-12-08T20:42:12.696Z,100913.03
2022-12-08T20:44:43.344Z,100895.69
2022-12-08T20:47:11.141Z,100891.19
2022-12-08T20:49:38.937Z,100918.13
2022-12-08T20:52:05.585Z,100919.78
2022-12-08T20:54:32.233Z,100901.50
2022-12-08T20:56:58.821Z,100888.38
2022-12-08T20:59:26.448Z,100921.19
2022-12-08T21:01:53.555Z,100917.78
2022-12-08T21:04:21.124Z,100921.13
2022-12-08T21:06:48.145Z,100907.25
2022-12-08T21:09:15.022Z,100916.50
2022-12-08T21:11:41.629Z,100896.63
2022-12-08T21:14:08.562Z,100905.19
2022-12-08T21:16:35.313Z,100908.41
2022-12-08T21:19:02.084Z,100910.31
2022-12-08T21:21:28.837Z,100893.63
2022-12-08T21:23:55.356Z,100883.94
2022-12-08T21:26:25.994Z,100919.47
2022-12-08T21:28:54.830Z,100901.16
2022-12-08T21:31:22.249Z,100916.78
2022-12-08T21:33:49.241Z,100907.91
2022-12-08T21:36:19.062Z,100915.78
2022-12-08T21:38:48.057Z,100919.09
2022-12-08T21:41:37.603Z,100917.28
2022-12-08T21:44:05.685Z,100871.31
2022-12-08T21:46:33.304Z,100907.75
2022-12-08T21:49:00.328Z,100899.03
2022-12-08T21:51:27.170Z,100905.03
2022-12-08T21:53:54.482Z,100900.47
2022-12-08T21:56:21.081Z,100914.16
2022-12-08T21:58:47.977Z,100910.66
2022-12-08T22:01:14.871Z,100913.22
2022-12-08T22:03:42.086Z,100884.50
2022-12-08T22:06:12.321Z,100905.38
2022-12-08T22:08:39.819Z,100917.31
2022-12-08T22:11:08.103Z,100905.16
2022-12-08T22:13:36.284Z,100919.88
2022-12-08T22:16:05.637Z,100930.13
2022-12-08T22:18:33.891Z,100906.91
2022-12-08T22:21:00.581Z,100899.19
2022-12-08T22:23:28.500Z,100918.94
2022-12-08T22:26:02.636Z,100914.66
2022-12-08T22:28:33.121Z,100911.25
2022-12-08T22:30:59.763Z,100901.69
2022-12-08T22:33:29.809Z,100883.56
2022-12-08T22:36:08.056Z,100903.50
2022-12-08T22:38:36.483Z,100886.81
2022-12-08T22:41:05.664Z,100902.44
2022-12-08T22:43:33.238Z,100905.84
2022-12-08T22:46:00.392Z,100903.91
2022-12-08T22:48:27.375Z,100913.41
2022-12-08T22:51:01.034Z,100913.41
2022-12-08T22:53:27.521Z,100908.13
2022-12-08T22:55:54.025Z,100879.72
2022-12-08T22:58:20.873Z,100899.53
2022-12-08T23:00:47.808Z,100903.03
2022-12-08T23:03:14.628Z,100901.28
2022-12-08T23:05:41.647Z,100871.81
2022-12-08T23:08:09.403Z,100885.47
2022-12-08T23:10:36.306Z,100897.72
2022-12-08T23:13:04.144Z,100890.72
2022-12-08T23:15:31.599Z,100898.47
2022-12-08T23:17:58.662Z,100896.75
2022-12-08T23:20:25.737Z,100898.25
2022-12-08T23:22:53.928Z,100893.16
2022-12-08T23:25:20.534Z,100876.59
2022-12-08T23:27:47.579Z,100882.78
2022-12-08T23:30:15.152Z,100895.66
2022-12-08T23:32:42.024Z,100874.84
2022-12-08T23:35:09.960Z,100862.63
2022-12-08T23:37:36.708Z,100876.59
2022-12-08T23:40:04.486Z,100893.72
2022-12-08T23:42:31.499Z,100873.84
2022-12-08T23:44:58.029Z,100853.84
2022-12-08T23:47:25.384Z,100855.56
2022-12-08T23:49:52.035Z,100881.56
2022-12-08T23:52:18.661Z,100876.38
2022-12-08T23:54:45.274Z,100881.34
2022-12-08T23:57:11.812Z,100863.22
2022-12-08T23:59:38.702Z,100878.59
